• Join FlightAware (Why Join?)
  • Login
  • US Flag 
08:42AM EST


 

Airport Tracker/Info


-or-


 

Live Flight TrackerFlight Track Log ✈ EJM19 ✈ 30-Jun-2013 ✈ KISM - KHPN

Flight Track Log - Related Links

Times and Time Zones

All times are in EDT time to prevent confusion due to time zone crossing. See the EJM19 flight status page for this flight to view local times or setup timezone preferences in your user account.

Time Position Orientation Groundspeed Altitude Reporting Facility
EDT Latitude Longitude Course Direction KTS MPH feet Rate Location/Type
06:04PM 28.2833 -81.4333 233° Southwest 151 174 600  Level Orlando TRACON
06:06PM 28.2500 -81.4833 233° Southwest 202 232 2,900 1,625 Climbing Orlando TRACON
06:07PM 28.2833 -81.5333 307° West 230 265 4,500 1,450 Climbing Orlando TRACON
06:08PM 28.3500 -81.5667 336° Northwest 300 345 5,800 1,700 Climbing Orlando TRACON
06:09PM 28.4333 -81.5333 19° North 299 344 7,900 2,654 Climbing Orlando TRACON
06:10PM 28.5536 -81.5053 12° North 326 375 12,700 2,577 Climbing Jacksonville Center
06:11PM 28.6533 -81.4803 12° North 340 391 14,600 2,100 Climbing Jacksonville Center
06:12PM 28.7617 -81.4503 14° North 373 429 16,900 2,350 Climbing Jacksonville Center
06:13PM 28.8656 -81.4181 15° North 387 445 19,300 1,850 Climbing Jacksonville Center
06:14PM 28.9781 -81.3925 11° North 397 457 20,600 1,250 Climbing Jacksonville Center
06:15PM 29.0950 -81.3908 North 407 468 21,800 1,450 Climbing Jacksonville Center
06:16PM 29.2139 -81.4008 356° North 412 474 23,500 1,550 Climbing Jacksonville Center
06:17PM 29.3289 -81.4133 355° North 412 474 24,900 1,250 Climbing Jacksonville Center
06:18PM 29.4586 -81.4233 356° North 417 480 26,000 1,000 Climbing Jacksonville Center
06:19PM 29.5631 -81.4386 353° North 417 480 26,900 1,150 Climbing Jacksonville Center
06:20PM 29.6719 -81.4728 345° North 417 480 28,300 1,550 Climbing Jacksonville Center
06:21PM 29.7789 -81.5022 347° North 400 460 30,000 1,250 Climbing Jacksonville Center
06:22PM 29.8878 -81.5367 345° North 400 460 30,800 1,100 Climbing Jacksonville Center
06:23PM 30.0047 -81.5447 357° North 400 460 32,200 1,600 Climbing Jacksonville Center
06:24PM 30.1214 -81.5358 North 405 466 34,000 1,550 Climbing Jacksonville Center
06:25PM 30.2342 -81.5294 North 405 466 35,300 1,050 Climbing Jacksonville Center
06:26PM 30.3467 -81.5014 12° North 405 466 36,100 650 Climbing Jacksonville Center
06:27PM 30.4442 -81.4397 29° Northeast 393 452 36,600 650 Climbing Jacksonville Center
06:28PM 30.5436 -81.3731 30° Northeast 399 459 37,400 900 Climbing Jacksonville Center
06:29PM 30.6386 -81.3064 31° Northeast 399 459 38,400 950 Climbing Jacksonville Center
06:30PM 30.7339 -81.2419 30° Northeast 399 459 39,300 800 Climbing Jacksonville Center
06:31PM 30.8292 -81.1750 31° Northeast 399 459 40,000 600 Climbing Jacksonville Center
06:32PM 30.9264 -81.1078 31° Northeast 399 459 40,500 500 Climbing Jacksonville Center
06:33PM 31.0236 -81.0406 31° Northeast 399 459 41,000 250 Climbing Jacksonville Center
06:34PM 31.1247 -80.9706 31° Northeast 399 459 41,000  Level Jacksonville Center
06:35PM 31.2300 -80.8956 31° Northeast 418 481 41,000  Level Jacksonville Center
06:36PM 31.3417 -80.8200 30° Northeast 435 501 41,000  Level Jacksonville Center
06:37PM 31.4550 -80.7397 31° Northeast 461 531 41,000  Level Jacksonville Center
06:38PM 31.5686 -80.6567 32° Northeast 472 543 41,000  Level Jacksonville Center
06:39PM 31.6797 -80.5783 31° Northeast 466 536 41,000  Level Jacksonville Center
06:40PM 31.8033 -80.4894 31° Northeast 466 536 41,000  Level Jacksonville Center
06:41PM 31.9167 -80.4108 30° Northeast 466 536 41,000  Level Jacksonville Center
06:42PM 32.0278 -80.3294 32° Northeast 466 536 41,000  Level Jacksonville Center
06:43PM 32.1389 -80.2478 32° Northeast 466 536 41,000  Level Jacksonville Center
06:44PM 32.2542 -80.1683 30° Northeast 466 536 41,000  Level Jacksonville Center
06:45PM 32.3672 -80.0839 32° Northeast 466 536 41,000  Level Jacksonville Center
06:46PM 32.4822 -79.9989 32° Northeast 466 536 41,000  Level Jacksonville Center
06:47PM 32.5928 -79.9092 34° Northeast 478 550 41,000  Level Jacksonville Center
06:48PM 32.7033 -79.8167 35° Northeast 478 550 41,000  Level Jacksonville Center
06:49PM 32.8158 -79.7239 35° Northeast 478 550 41,000  Level Jacksonville Center
06:51PM 32.9213 -79.6324 36° Northeast  Level FlightAware Approximate
06:51PM 33.0386 -79.5425 36° Northeast 478 550 41,000  Level Jacksonville Center
06:52PM 33.1508 -79.4489 35° Northeast 478 550 41,000  Level Jacksonville Center
06:53PM 33.2631 -79.3603 33° Northeast 478 550 41,000  Level Jacksonville Center
06:54PM 33.3775 -79.2661 34° Northeast 478 550 41,000 100 Level Jacksonville Center
06:55PM 33.4894 -79.1719 35° Northeast 484 557 41,200 400 Climbing Jacksonville Center
06:56PM 33.5933 -79.0853 35° Northeast 470 541 41,800 585 Climbing Jacksonville Center
06:58PM 33.7683 -78.9389 35° Northeast 503 579 42,800 439 Climbing Washington Center
06:59PM 33.8772 -78.8483 35° Northeast 491 565 43,000 102 Climbing Washington Center
07:00PM 33.9861 -78.7575 35° Northeast 477 549 43,000  Level Washington Center
07:01PM 34.0969 -78.6639 35° Northeast 477 549 43,000  Level Washington Center
07:02PM 34.2078 -78.5700 35° Northeast 483 556 43,000  Level Washington Center
07:03PM 34.3186 -78.4786 34° Northeast 483 556 43,000  Level Washington Center
07:04PM 34.4292 -78.3842 35° Northeast 483 556 43,000  Level Washington Center
07:05PM 34.5486 -78.2800 36° Northeast 483 556 43,000  Level Washington Center
07:06PM 34.6611 -78.1853 35° Northeast 483 556 43,000  Level Washington Center
07:07PM 34.7694 -78.0925 35° Northeast 483 556 43,000  Level Washington Center
07:08PM 34.8631 -78.0069 37° Northeast 478 550 43,000 -148 Level Washington Center
07:09PM 34.9903 -77.9092 32° Northeast 484 557 42,700 -403 Descending Washington Center
07:10PM 35.1044 -77.8236 32° Northeast 484 557 42,200 -504 Descending Washington Center
07:11PM 35.2189 -77.7353 32° Northeast 484 557 41,700 -492 Descending Washington Center
07:12PM 35.3350 -77.6467 32° Northeast 484 557 41,200 -344 Descending Washington Center
07:13PM 35.4514 -77.5578 32° Northeast 484 557 41,000 -102 Descending Washington Center
07:14PM 35.5656 -77.4714 32° Northeast 489 563 41,000  Level Washington Center
07:15PM 35.6794 -77.3819 33° Northeast 489 563 41,000  Level Washington Center
07:16PM 35.7956 -77.2925 32° Northeast 489 563 41,000  Level Washington Center
07:17PM 35.9094 -77.2050 32° Northeast 489 563 41,000  Level Washington Center
07:18PM 36.0086 -77.1222 34° Northeast 483 556 41,000  Level Washington Center
07:19PM 36.1222 -77.0344 32° Northeast 483 556 41,000  Level Washington Center
07:20PM 36.2381 -76.9439 32° Northeast 483 556 41,000  Level Washington Center
07:21PM 36.3539 -76.8531 32° Northeast 489 563 41,000  Level Washington Center
07:22PM 36.4675 -76.7644 32° Northeast 489 563 41,000  Level Washington Center
07:23PM 36.5831 -76.6731 32° Northeast 489 563 41,000  Level Washington Center
07:24PM 36.6964 -76.5842 32° Northeast 489 563 41,000  Level Washington Center
07:25PM 36.8119 -76.4869 34° Northeast 494 568 41,000  Level Washington Center
07:26PM 36.9253 -76.3922 34° Northeast 489 563 41,000  Level Washington Center
07:27PM 37.0386 -76.2997 33° Northeast 489 563 41,000  Level Washington Center
07:28PM 37.1539 -76.2069 33° Northeast 489 563 41,000  Level Washington Center
07:29PM 37.2856 -76.1086 31° Northeast 495 570 41,000  Level Washington Center
07:30PM 37.3986 -76.0153 33° Northeast 495 570 41,000  Level Washington Center
07:31PM 37.5136 -75.9192 34° Northeast 495 570 41,000  Level Washington Center
07:32PM 37.6286 -75.8253 33° Northeast 495 570 41,000  Level Washington Center
07:33PM 37.7433 -75.7308 33° Northeast 490 564 41,000  Level Washington Center
07:34PM 37.8561 -75.6364 33° Northeast 490 564 41,000  Level Washington Center
07:35PM 37.9708 -75.5392 34° Northeast 490 564 41,000  Level Washington Center
07:36PM 38.0897 -75.4544 29° Northeast 490 564 41,000  Level Washington Center
07:37PM 38.2106 -75.3697 29° Northeast 485 558 41,000  Level Washington Center
07:38PM 38.3083 -75.3167 23° Northeast 485 558 41,000  Level Washington Center
07:39PM 38.4394 -75.2258 28° Northeast 474 545 41,000  Level Washington Center
07:40PM 38.5600 -75.1456 28° Northeast 474 545 41,000  Level Washington Center
07:41PM 38.6828 -75.0650 27° Northeast 481 554 41,000 -545 Level Washington Center
07:42PM 38.8053 -74.9897 26° Northeast 486 559 39,900 -1,672 Descending Washington Center
07:43PM 38.9281 -74.9111 26° Northeast 491 565 37,600 -2,331 Descending Washington Center
07:44PM 39.0547 -74.8272 27° Northeast 491 565 35,200 -2,492 Descending Washington Center
07:45PM 39.1728 -74.7242 34° Northeast 496 571 32,700 -2,541 Descending Washington Center
07:47PM 39.4394 -74.4456 39° Northeast 512 589 26,900 -2,430 Descending New York Center
07:48PM 39.5364 -74.3428 39° Northeast 507 583 24,600 -1,500 Descending New York Center
07:49PM 39.6397 -74.2350 39° Northeast 492 566 23,900 -1,210 Descending New York Center
07:50PM 39.7428 -74.1267 39° Northeast 487 560 22,200 -1,388 Descending New York Center
07:51PM 39.8394 -74.0231 39° Northeast 466 536 21,100 -958 Descending New York Center
07:52PM 39.9339 -73.9219 39° Northeast 454 522 20,300 -756 Descending New York Center
07:53PM 40.0283 -73.8206 39° Northeast 437 503 19,600 -737 Descending New York Center
07:55PM 40.2017 -73.6381 39° Northeast 446 513 18,200 -737 Descending Boston Center
07:56PM 40.2922 -73.5419 39° Northeast 434 499 17,500 -600 Descending Boston Center
07:57PM 40.3889 -73.4617 32° Northeast 421 484 17,000 -250 Descending Boston Center
07:58PM 40.4997 -73.4144 18° North 411 473 17,000  Level Boston Center
07:59PM 40.6106 -73.3722 16° North 406 467 17,000 -722 Level Boston Center
08:01PM 40.8000 -73.2833 20° North 411 473 15,100 -1,291 Descending New York TRACON
08:02PM 40.8667 -73.1667 53° Northeast 428 493 13,600 -1,850 Descending New York TRACON
08:03PM 40.9167 -73.0500 60° Northeast 380 437 11,400 -2,050 Descending New York TRACON
08:04PM 40.9667 -72.9500 56° Northeast 340 391 9,500 -2,000 Descending New York TRACON
08:05PM 41.0500 -72.9667 351° North 303 349 7,600 -2,000 Descending New York TRACON
08:06PM 41.1167 -73.0333 323° Northwest 295 339 5,500 -1,238 Descending New York TRACON
08:07PM 41.1333 -73.1333 283° West 245 282 5,000 -300 Descending New York TRACON
08:08PM 41.1500 -73.2000 288° West 228 262 4,900 -300 Descending New York TRACON
08:09PM 41.1500 -73.2833 270° West 228 262 4,400 -450 Descending New York TRACON
08:10PM 41.1667 -73.3667 285° West 223 257 4,000 -200 Descending New York TRACON
08:11PM 41.1833 -73.4500 285° West 226 260 4,000 -190 Level New York TRACON
08:12PM 41.2000 -73.5500 283° West 224 258 3,600 -476 Descending New York TRACON
08:13PM 41.2167 -73.6167 288° West 222 255 3,000 -632 Descending New York TRACON
08:14PM 41.2333 -73.7000 285° West 220 253 2,400 -667 Descending New York TRACON